Time;durP1;ratioP1;P1;durP2;ratioP2;P2;SDS_P1;SDS_P2;PMS_P1;PMS_P2;Temp;Humidity;BMP_temperature;BMP_pressure;BME280_temperature;BME280_humidity;BME280_pressure;Samples;Min_cycle;Max_cycle;Signal;HPM_P1;HPM_P2
2023/10/29 00:00:09;;;;;;;3.35;1.10;;;;;;;;;;5060684;28;20035;-78
2023/10/29 00:02:34;;;;;;;3.65;1.23;;;;;;;;;;5060774;28;20032;-79
2023/10/29 00:04:59;;;;;;;3.88;1.20;;;;;;;;;;5060605;28;20209;-78
2023/10/29 00:07:25;;;;;;;2.60;1.27;;;;;;;;;;5060463;28;20084;-78
2023/10/29 00:09:50;;;;;;;4.90;1.30;;;;;;;;;;5060611;28;20314;-77
2023/10/29 00:12:15;;;;;;;4.50;1.33;;;;;;;;;;5060445;28;20037;-78
2023/10/29 00:14:41;;;;;;;6.68;1.60;;;;;;;;;;5059546;28;20137;-77
2023/10/29 00:17:06;;;;;;;3.65;1.50;;;;;;;;;;5058712;28;20045;-79
2023/10/29 00:19:32;;;;;;;3.97;1.60;;;;;;;;;;5059626;28;20020;-78
2023/10/29 00:21:57;;;;;;;4.72;1.60;;;;;;;;;;5058304;28;20049;-79
2023/10/29 00:24:23;;;;;;;4.90;1.88;;;;;;;;;;5053912;28;20032;-79
2023/10/29 00:26:48;;;;;;;3.70;1.50;;;;;;;;;;5058115;28;20040;-78
2023/10/29 00:29:13;;;;;;;2.92;1.42;;;;;;;;;;5049764;28;20436;-80
2023/10/29 00:31:39;;;;;;;5.03;1.40;;;;;;;;;;5055645;28;20033;-79
2023/10/29 00:34:05;;;;;;;2.78;1.25;;;;;;;;;;5057625;28;20029;-78
2023/10/29 00:36:30;;;;;;;3.80;1.40;;;;;;;;;;5055848;28;20036;-79
2023/10/29 00:38:56;;;;;;;5.22;1.40;;;;;;;;;;5057097;28;20040;-78
2023/10/29 00:41:21;;;;;;;2.30;1.30;;;;;;;;;;5058364;28;20029;-78
2023/10/29 00:43:46;;;;;;;5.43;1.50;;;;;;;;;;5059625;28;20056;-79
2023/10/29 00:46:14;;;;;;;2.63;1.25;;;;;;;;;;5059417;28;20224;-81
2023/10/29 00:48:41;;;;;;;3.10;1.40;;;;;;;;;;5059373;28;20096;-78
2023/10/29 00:51:06;;;;;;;5.93;1.38;;;;;;;;;;5056983;28;20077;-80
2023/10/29 00:53:33;;;;;;;2.78;1.20;;;;;;;;;;5058248;28;20997;-77
2023/10/29 00:55:59;;;;;;;5.55;1.30;;;;;;;;;;5059867;28;20033;-79
2023/10/29 00:58:25;;;;;;;3.58;1.20;;;;;;;;;;5058888;28;20044;-78
2023/10/29 01:00:51;;;;;;;5.55;1.35;;;;;;;;;;5059645;28;20025;-80
2023/10/29 01:03:18;;;;;;;3.67;1.10;;;;;;;;;;5059898;28;20028;-80
2023/10/29 01:05:45;;;;;;;5.85;1.30;;;;;;;;;;5059548;28;20439;-78
2023/10/29 01:08:11;;;;;;;5.00;1.40;;;;;;;;;;5059696;28;20225;-77
2023/10/29 01:10:36;;;;;;;3.38;1.40;;;;;;;;;;5059853;28;20089;-78
2023/10/29 01:13:01;;;;;;;6.95;1.30;;;;;;;;;;5059800;28;20060;-79
2023/10/29 01:15:27;;;;;;;4.13;1.50;;;;;;;;;;5059659;28;20028;-79
2023/10/29 01:17:52;;;;;;;7.35;1.40;;;;;;;;;;5059795;28;20296;-78
2023/10/29 01:20:17;;;;;;;4.45;1.40;;;;;;;;;;5059637;28;20096;-78
2023/10/29 01:22:44;;;;;;;4.82;1.20;;;;;;;;;;5059197;28;20025;-78
2023/10/29 01:25:10;;;;;;;6.53;1.40;;;;;;;;;;5045344;28;20217;-80
2023/10/29 01:27:36;;;;;;;5.82;1.42;;;;;;;;;;5059734;28;20024;-80
2023/10/29 01:30:02;;;;;;;3.80;1.40;;;;;;;;;;5057351;28;20028;-80
2023/10/29 01:32:28;;;;;;;5.70;1.30;;;;;;;;;;5059334;28;20025;-79
2023/10/29 01:34:54;;;;;;;5.95;1.30;;;;;;;;;;5059015;28;20013;-81
2023/10/29 01:37:19;;;;;;;4.90;1.10;;;;;;;;;;5060436;28;20075;-82
2023/10/29 01:39:45;;;;;;;5.07;1.20;;;;;;;;;;5063425;28;20021;-78
2023/10/29 01:42:11;;;;;;;7.63;1.40;;;;;;;;;;5063272;28;20062;-80
2023/10/29 01:44:36;;;;;;;4.68;1.50;;;;;;;;;;5063068;28;20029;-78
2023/10/29 01:47:02;;;;;;;6.60;1.40;;;;;;;;;;5063340;28;20036;-81
2023/10/29 01:49:28;;;;;;;5.72;1.30;;;;;;;;;;5056459;28;20025;-78
2023/10/29 01:51:53;;;;;;;5.28;1.10;;;;;;;;;;5063009;28;20052;-82
2023/10/29 01:54:18;;;;;;;11.02;1.50;;;;;;;;;;5062821;28;20490;-80
2023/10/29 01:56:44;;;;;;;6.90;1.40;;;;;;;;;;5063417;28;20028;-79
2023/10/29 01:59:13;;;;;;;5.20;1.23;;;;;;;;;;5059858;28;20063;-80
2023/10/29 02:01:38;;;;;;;8.45;1.95;;;;;;;;;;5045176;28;20212;-79
2023/10/29 02:04:08;;;;;;;6.28;1.40;;;;;;;;;;5062211;28;20053;-79
2023/10/29 02:06:38;;;;;;;6.03;1.30;;;;;;;;;;5062831;28;20088;-80
2023/10/29 02:09:04;;;;;;;11.75;1.65;;;;;;;;;;5062757;28;20052;-79
2023/10/29 02:11:30;;;;;;;4.63;1.40;;;;;;;;;;5062783;28;20040;-81
2023/10/29 02:13:55;;;;;;;9.32;1.70;;;;;;;;;;5062668;28;20209;-80
2023/10/29 02:16:20;;;;;;;5.72;1.40;;;;;;;;;;5045112;28;20313;-77
2023/10/29 02:18:46;;;;;;;8.75;1.80;;;;;;;;;;5056441;28;20022;-80
2023/10/29 02:21:11;;;;;;;8.35;1.70;;;;;;;;;;5046684;28;20028;-78
2023/10/29 02:23:37;;;;;;;11.05;1.77;;;;;;;;;;5064287;28;20025;-78
2023/10/29 02:26:02;;;;;;;8.95;1.60;;;;;;;;;;5063090;28;20033;-79
2023/10/29 02:28:28;;;;;;;7.97;1.75;;;;;;;;;;5062289;28;20033;-79
2023/10/29 02:30:53;;;;;;;6.40;1.50;;;;;;;;;;5062579;28;20036;-79
2023/10/29 02:33:18;;;;;;;8.48;1.58;;;;;;;;;;5062050;28;20031;-80
2023/10/29 02:35:44;;;;;;;7.38;1.55;;;;;;;;;;5062350;28;20031;-78
2023/10/29 02:38:09;;;;;;;8.07;1.50;;;;;;;;;;5061982;28;20411;-80
2023/10/29 02:40:35;;;;;;;10.90;1.60;;;;;;;;;;5062476;28;20356;-81
2023/10/29 02:43:00;;;;;;;9.48;1.83;;;;;;;;;;5062272;28;20032;-80
2023/10/29 02:45:26;;;;;;;9.13;1.75;;;;;;;;;;5062249;28;20046;-80
2023/10/29 02:47:53;;;;;;;8.85;1.60;;;;;;;;;;5061784;28;20029;-79
2023/10/29 02:50:18;;;;;;;12.32;1.85;;;;;;;;;;5056561;28;20033;-80
2023/10/29 02:52:44;;;;;;;5.65;1.33;;;;;;;;;;5061729;28;20028;-78
2023/10/29 02:55:09;;;;;;;7.90;1.40;;;;;;;;;;5061885;28;20017;-80
2023/10/29 02:57:35;;;;;;;9.23;1.65;;;;;;;;;;5061926;28;20017;-80
2023/10/29 03:00:00;;;;;;;10.75;1.73;;;;;;;;;;5055632;28;20071;-80
2023/10/29 03:02:26;;;;;;;11.30;1.65;;;;;;;;;;5057460;28;20133;-81
2023/10/29 03:04:51;;;;;;;13.05;1.92;;;;;;;;;;5058899;28;20084;-80
2023/10/29 03:07:16;;;;;;;9.73;1.67;;;;;;;;;;5061539;28;20029;-82
2023/10/29 03:09:42;;;;;;;9.55;1.77;;;;;;;;;;5061569;28;20084;-82
2023/10/29 03:12:07;;;;;;;8.95;1.50;;;;;;;;;;5076672;28;20484;-82
2023/10/29 03:14:32;;;;;;;10.63;1.70;;;;;;;;;;5048921;28;20036;-81
2023/10/29 03:16:58;;;;;;;10.77;1.88;;;;;;;;;;5061731;28;20391;-80
2023/10/29 03:19:23;;;;;;;8.60;1.80;;;;;;;;;;5058851;28;20150;-81
2023/10/29 03:21:49;;;;;;;12.38;1.88;;;;;;;;;;5060988;28;20255;-80
2023/10/29 03:24:15;;;;;;;14.60;1.98;;;;;;;;;;5061459;28;20178;-81
2023/10/29 03:26:41;;;;;;;11.75;1.90;;;;;;;;;;5061443;28;20127;-81
2023/10/29 03:29:07;;;;;;;15.23;2.05;;;;;;;;;;5061311;28;20347;-79
2023/10/29 03:31:33;;;;;;;9.57;1.65;;;;;;;;;;5060893;28;20033;-79
2023/10/29 03:33:58;;;;;;;10.45;1.95;;;;;;;;;;5054582;28;20041;-79
2023/10/29 03:36:23;;;;;;;11.02;1.65;;;;;;;;;;5042846;28;20035;-79
2023/10/29 03:38:49;;;;;;;11.88;2.13;;;;;;;;;;5060986;28;20092;-79
2023/10/29 03:41:22;;;;;;;10.65;1.60;;;;;;;;;;5061199;28;20021;-80
2023/10/29 03:43:48;;;;;;;11.55;1.95;;;;;;;;;;5057841;28;20017;-80
2023/10/29 03:46:13;;;;;;;15.35;2.33;;;;;;;;;;5059674;28;20017;-79
2023/10/29 03:48:44;;;;;;;15.93;2.08;;;;;;;;;;5060579;28;20194;-79
2023/10/29 03:51:12;;;;;;;14.77;2.15;;;;;;;;;;5060679;28;20053;-79
2023/10/29 03:53:38;;;;;;;12.82;2.00;;;;;;;;;;5043132;28;20316;-81
2023/10/29 03:56:03;;;;;;;12.77;2.00;;;;;;;;;;5060584;28;20032;-79
2023/10/29 03:58:29;;;;;;;12.38;1.92;;;;;;;;;;5060859;28;20035;-78
2023/10/29 04:00:54;;;;;;;14.35;1.98;;;;;;;;;;5060538;28;20032;-80
2023/10/29 04:03:20;;;;;;;9.98;1.70;;;;;;;;;;5053751;28;20095;-79
2023/10/29 04:05:45;;;;;;;12.68;2.00;;;;;;;;;;5054864;28;20032;-79
2023/10/29 04:08:10;;;;;;;14.75;1.98;;;;;;;;;;5060598;28;20400;-80
2023/10/29 04:10:36;;;;;;;11.93;2.30;;;;;;;;;;5060480;28;20029;-80
2023/10/29 04:13:01;;;;;;;18.05;2.53;;;;;;;;;;5060873;28;20021;-80
2023/10/29 04:15:26;;;;;;;11.20;1.75;;;;;;;;;;5060501;28;20036;-80
2023/10/29 04:17:52;;;;;;;12.68;1.92;;;;;;;;;;5060500;28;20027;-79
2023/10/29 04:20:17;;;;;;;10.43;2.05;;;;;;;;;;5059663;28;20056;-79
2023/10/29 04:22:43;;;;;;;10.82;1.80;;;;;;;;;;5060455;28;20039;-80
2023/10/29 04:25:08;;;;;;;13.45;1.70;;;;;;;;;;5060305;28;20058;-79
2023/10/29 04:27:34;;;;;;;11.48;1.95;;;;;;;;;;5060363;28;20029;-79
2023/10/29 04:29:59;;;;;;;15.93;2.22;;;;;;;;;;5060227;28;20024;-81
2023/10/29 04:32:25;;;;;;;9.70;1.80;;;;;;;;;;5072753;28;20044;-80
2023/10/29 04:34:50;;;;;;;10.77;1.63;;;;;;;;;;5055398;28;20033;-79
2023/10/29 04:37:15;;;;;;;15.43;2.25;;;;;;;;;;5059762;28;20070;-79
2023/10/29 04:39:42;;;;;;;15.70;1.95;;;;;;;;;;5060022;28;20021;-79
2023/10/29 04:42:08;;;;;;;10.25;2.05;;;;;;;;;;5041966;28;20029;-80
2023/10/29 04:44:34;;;;;;;11.88;2.05;;;;;;;;;;5043488;28;20427;-78
2023/10/29 04:46:59;;;;;;;13.85;2.08;;;;;;;;;;5059714;28;20021;-79
2023/10/29 04:49:26;;;;;;;11.98;2.47;;;;;;;;;;5058796;28;20025;-77
2023/10/29 04:51:52;;;;;;;10.50;1.90;;;;;;;;;;5058886;28;20053;-77
2023/10/29 04:54:17;;;;;;;12.63;1.98;;;;;;;;;;5054987;28;20072;-77
2023/10/29 04:56:42;;;;;;;14.35;2.00;;;;;;;;;;5059814;28;20258;-77
2023/10/29 04:59:08;;;;;;;10.05;1.80;;;;;;;;;;5059857;28;20100;-77
2023/10/29 05:01:33;;;;;;;11.50;1.85;;;;;;;;;;5062431;28;20021;-76
2023/10/29 05:03:59;;;;;;;18.33;3.00;;;;;;;;;;5034513;28;20336;-76
2023/10/29 05:06:24;;;;;;;13.80;2.33;;;;;;;;;;5058250;28;20021;-78
2023/10/29 05:08:49;;;;;;;20.38;2.42;;;;;;;;;;5059818;28;20025;-77
2023/10/29 05:11:15;;;;;;;13.98;2.40;;;;;;;;;;5059830;28;20029;-77
2023/10/29 05:13:41;;;;;;;11.05;2.15;;;;;;;;;;5063314;28;20043;-77
2023/10/29 05:16:07;;;;;;;10.85;2.10;;;;;;;;;;5064123;28;20479;-77
2023/10/29 05:18:32;;;;;;;9.68;1.65;;;;;;;;;;5063720;28;20025;-77
2023/10/29 05:20:58;;;;;;;16.88;2.13;;;;;;;;;;5063671;28;20040;-76
2023/10/29 05:23:23;;;;;;;10.85;1.85;;;;;;;;;;5050497;28;20025;-77
2023/10/29 05:25:49;;;;;;;14.40;2.83;;;;;;;;;;5063213;28;20024;-77
2023/10/29 05:28:16;;;;;;;16.50;2.03;;;;;;;;;;5063436;28;20078;-77
2023/10/29 05:30:42;;;;;;;17.23;2.22;;;;;;;;;;5063525;28;20037;-76
2023/10/29 05:33:07;;;;;;;11.00;1.88;;;;;;;;;;5063319;28;20047;-76
2023/10/29 05:35:33;;;;;;;11.10;1.77;;;;;;;;;;5063305;28;20016;-78
2023/10/29 05:37:58;;;;;;;9.20;1.70;;;;;;;;;;5063640;28;20025;-76
2023/10/29 05:40:24;;;;;;;11.40;1.80;;;;;;;;;;5063362;28;20033;-76
2023/10/29 05:42:50;;;;;;;12.90;2.25;;;;;;;;;;5063624;28;20027;-77
2023/10/29 05:45:15;;;;;;;13.82;2.28;;;;;;;;;;5062961;28;20320;-77
2023/10/29 05:47:40;;;;;;;10.80;1.95;;;;;;;;;;5061919;28;20063;-77
2023/10/29 05:50:06;;;;;;;13.07;1.88;;;;;;;;;;5061837;28;20037;-77
2023/10/29 05:52:32;;;;;;;13.52;1.75;;;;;;;;;;5062925;28;20044;-77
2023/10/29 05:55:01;;;;;;;19.02;1.67;;;;;;;;;;5062299;28;20037;-77
2023/10/29 05:57:27;;;;;;;11.05;1.63;;;;;;;;;;5062167;28;20039;-76
2023/10/29 05:59:52;;;;;;;15.20;1.90;;;;;;;;;;5060589;28;20028;-77
2023/10/29 06:02:17;;;;;;;24.48;2.50;;;;;;;;;;5062140;28;20036;-77
2023/10/29 06:04:43;;;;;;;13.52;1.83;;;;;;;;;;5060933;28;20049;-77
2023/10/29 06:07:08;;;;;;;14.73;2.17;;;;;;;;;;5062640;28;20029;-80
2023/10/29 06:09:34;;;;;;;11.45;1.95;;;;;;;;;;5062373;28;20254;-77
2023/10/29 06:11:59;;;;;;;15.57;2.22;;;;;;;;;;5062477;28;20087;-76
2023/10/29 06:14:24;;;;;;;6.75;1.40;;;;;;;;;;5062301;28;20290;-78
2023/10/29 06:16:56;;;;;;;10.80;1.73;;;;;;;;;;5061945;28;20098;-76
2023/10/29 06:19:25;;;;;;;9.05;1.60;;;;;;;;;;5059711;28;20021;-77
2023/10/29 06:21:51;;;;;;;13.68;2.08;;;;;;;;;;5062213;28;20025;-77
2023/10/29 06:24:17;;;;;;;12.30;2.22;;;;;;;;;;5061661;28;20021;-77
2023/10/29 06:26:42;;;;;;;10.98;1.80;;;;;;;;;;5062266;28;20032;-76
2023/10/29 06:29:08;;;;;;;11.98;1.92;;;;;;;;;;5061975;28;20040;-75
2023/10/29 06:31:35;;;;;;;16.05;2.05;;;;;;;;;;5062144;28;20025;-76
2023/10/29 06:34:01;;;;;;;12.98;2.25;;;;;;;;;;5061310;28;20025;-77
2023/10/29 06:36:27;;;;;;;11.63;1.80;;;;;;;;;;5061088;28;20027;-76
2023/10/29 06:38:52;;;;;;;11.68;2.05;;;;;;;;;;5057096;28;20048;-76
2023/10/29 06:41:18;;;;;;;15.65;1.98;;;;;;;;;;5060307;28;20043;-77
2023/10/29 06:43:43;;;;;;;16.75;2.00;;;;;;;;;;5061595;28;20029;-77
2023/10/29 06:46:08;;;;;;;14.45;1.90;;;;;;;;;;5061926;28;20100;-76
2023/10/29 06:48:36;;;;;;;10.90;1.88;;;;;;;;;;5038154;28;20028;-79
2023/10/29 06:51:03;;;;;;;9.25;1.70;;;;;;;;;;5055147;28;20061;-78
2023/10/29 06:53:28;;;;;;;10.98;1.77;;;;;;;;;;5056164;28;20024;-77
2023/10/29 06:55:53;;;;;;;10.55;2.50;;;;;;;;;;5061500;28;20033;-77
2023/10/29 06:58:19;;;;;;;13.63;2.15;;;;;;;;;;5060696;28;20028;-78
2023/10/29 07:00:44;;;;;;;12.30;2.00;;;;;;;;;;5059835;28;20025;-79
2023/10/29 07:03:09;;;;;;;15.25;2.28;;;;;;;;;;5053304;28;20025;-78
2023/10/29 07:05:35;;;;;;;10.77;1.88;;;;;;;;;;5045568;28;20033;-77
2023/10/29 07:08:01;;;;;;;11.43;2.13;;;;;;;;;;5059771;28;20076;-78
2023/10/29 07:10:26;;;;;;;11.70;1.95;;;;;;;;;;5043647;28;20021;-78
2023/10/29 07:12:53;;;;;;;8.82;1.83;;;;;;;;;;5060733;28;20020;-80
2023/10/29 07:15:19;;;;;;;10.15;2.13;;;;;;;;;;5060475;28;20041;-78
2023/10/29 07:17:44;;;;;;;18.70;2.25;;;;;;;;;;5059740;28;20040;-80
2023/10/29 07:20:10;;;;;;;9.80;1.50;;;;;;;;;;5054183;28;20029;-79
2023/10/29 07:22:36;;;;;;;12.00;1.70;;;;;;;;;;5051912;28;20047;-79
2023/10/29 07:25:01;;;;;;;10.98;1.60;;;;;;;;;;5060803;28;20064;-78
2023/10/29 07:27:27;;;;;;;7.43;1.60;;;;;;;;;;5060078;28;20040;-77
2023/10/29 07:29:52;;;;;;;7.88;1.65;;;;;;;;;;5060541;28;20416;-79
2023/10/29 07:32:18;;;;;;;9.07;1.70;;;;;;;;;;5039852;28;20033;-78
2023/10/29 07:34:43;;;;;;;9.50;1.52;;;;;;;;;;5055001;28;20120;-79
2023/10/29 07:37:09;;;;;;;10.40;1.83;;;;;;;;;;5053250;28;20096;-79
2023/10/29 07:39:35;;;;;;;9.63;1.75;;;;;;;;;;5060720;28;20111;-78
2023/10/29 07:42:01;;;;;;;8.27;1.90;;;;;;;;;;5061023;28;20044;-78
2023/10/29 07:44:27;;;;;;;7.03;1.50;;;;;;;;;;5042747;28;20101;-79
2023/10/29 07:46:52;;;;;;;9.70;2.00;;;;;;;;;;5060569;28;20090;-77
2023/10/29 07:49:18;;;;;;;7.32;1.40;;;;;;;;;;5057421;28;20256;-78
2023/10/29 07:51:43;;;;;;;8.55;1.40;;;;;;;;;;5060314;28;20052;-79
2023/10/29 07:54:09;;;;;;;8.30;1.65;;;;;;;;;;5060560;28;20436;-79
2023/10/29 07:56:34;;;;;;;9.15;1.60;;;;;;;;;;5061408;28;20033;-78
2023/10/29 07:58:59;;;;;;;13.38;1.98;;;;;;;;;;5059557;28;20092;-78
2023/10/29 08:01:25;;;;;;;12.82;2.45;;;;;;;;;;5060366;28;20078;-77
2023/10/29 08:03:51;;;;;;;8.82;1.80;;;;;;;;;;5059725;28;20305;-79
2023/10/29 08:06:16;;;;;;;5.20;1.20;;;;;;;;;;5060508;28;20028;-79
2023/10/29 08:08:42;;;;;;;10.88;1.75;;;;;;;;;;5060385;28;20029;-79
2023/10/29 08:11:20;;;;;;;5.60;1.50;;;;;;;;;;5060428;28;20037;-79
2023/10/29 08:13:46;;;;;;;7.47;1.58;;;;;;;;;;5059968;28;20237;-78
2023/10/29 08:16:12;;;;;;;6.45;1.40;;;;;;;;;;5060153;28;20028;-81
2023/10/29 08:18:38;;;;;;;7.05;1.33;;;;;;;;;;5058416;28;20029;-80
2023/10/29 08:21:03;;;;;;;7.05;1.40;;;;;;;;;;5059427;28;20044;-81
2023/10/29 08:23:29;;;;;;;4.32;1.20;;;;;;;;;;5059933;28;20029;-81
2023/10/29 08:25:55;;;;;;;4.72;1.38;;;;;;;;;;5060288;28;20044;-81
2023/10/29 08:28:21;;;;;;;7.57;1.33;;;;;;;;;;5059527;28;20032;-81
2023/10/29 08:30:49;;;;;;;7.05;1.48;;;;;;;;;;5060106;28;20062;-83
2023/10/29 08:33:15;;;;;;;4.38;1.08;;;;;;;;;;5059525;28;20037;-82
2023/10/29 08:35:47;;;;;;;6.38;1.50;;;;;;;;;;5067951;28;20025;-83
2023/10/29 08:38:12;;;;;;;5.47;1.30;;;;;;;;;;5059653;28;20031;-82
2023/10/29 08:40:38;;;;;;;5.28;1.30;;;;;;;;;;5059783;28;20017;-82
2023/10/29 08:43:04;;;;;;;7.05;1.67;;;;;;;;;;5060005;28;20021;-82
2023/10/29 08:45:30;;;;;;;6.65;1.70;;;;;;;;;;5059948;28;20029;-86
2023/10/29 08:47:55;;;;;;;5.00;1.45;;;;;;;;;;5057544;28;20092;-83
2023/10/29 08:50:21;;;;;;;6.32;1.50;;;;;;;;;;5057105;28;20136;-85
2023/10/29 08:52:46;;;;;;;7.50;1.42;;;;;;;;;;5056780;28;20029;-81
2023/10/29 08:55:11;;;;;;;6.20;1.70;;;;;;;;;;5053460;28;20033;-83
2023/10/29 08:57:37;;;;;;;8.05;2.65;;;;;;;;;;5058710;28;20056;-82
2023/10/29 09:00:03;;;;;;;4.32;1.35;;;;;;;;;;5059509;28;20086;-80
2023/10/29 09:02:28;;;;;;;5.35;1.10;;;;;;;;;;5059924;28;20032;-82
2023/10/29 09:04:57;;;;;;;5.32;1.30;;;;;;;;;;5052935;28;20032;-85
2023/10/29 09:07:25;;;;;;;3.70;1.23;;;;;;;;;;5054395;28;20338;-82
2023/10/29 09:09:52;;;;;;;4.72;1.20;;;;;;;;;;5042124;28;20313;-83
2023/10/29 09:12:18;;;;;;;3.40;1.17;;;;;;;;;;5059339;28;20049;-82
2023/10/29 09:14:44;;;;;;;5.70;1.67;;;;;;;;;;5059383;28;20208;-82
2023/10/29 09:17:10;;;;;;;5.63;1.30;;;;;;;;;;5059013;28;20057;-82
2023/10/29 09:19:35;;;;;;;4.13;1.30;;;;;;;;;;5057342;28;20092;-85
2023/10/29 09:22:01;;;;;;;3.42;1.10;;;;;;;;;;5059741;28;20029;-86
2023/10/29 09:24:26;;;;;;;3.67;1.20;;;;;;;;;;5059292;28;20032;-82
2023/10/29 09:26:51;;;;;;;3.42;1.10;;;;;;;;;;5059584;28;20041;-83
2023/10/29 09:29:17;;;;;;;4.57;1.17;;;;;;;;;;5059417;28;20041;-84
2023/10/29 09:31:42;;;;;;;5.03;1.13;;;;;;;;;;5059040;28;20328;-83
2023/10/29 09:34:08;;;;;;;3.30;1.00;;;;;;;;;;5055178;28;20048;-83
2023/10/29 09:36:33;;;;;;;2.65;1.08;;;;;;;;;;5042757;28;20036;-85
2023/10/29 09:38:59;;;;;;;3.35;1.20;;;;;;;;;;5053790;28;20029;-81
2023/10/29 09:41:25;;;;;;;4.75;1.30;;;;;;;;;;5058093;28;20194;-79
2023/10/29 09:43:53;;;;;;;5.97;1.20;;;;;;;;;;5047271;28;20032;-78
2023/10/29 09:46:20;;;;;;;6.72;1.40;;;;;;;;;;5059426;28;20029;-77
2023/10/29 09:48:47;;;;;;;4.63;1.30;;;;;;;;;;5056015;28;20096;-77
2023/10/29 09:51:12;;;;;;;3.67;1.10;;;;;;;;;;5055539;28;20476;-77
2023/10/29 09:53:38;;;;;;;1.80;0.90;;;;;;;;;;5052252;28;20036;-79
2023/10/29 09:56:10;;;;;;;4.97;1.10;;;;;;;;;;5054005;28;20029;-79
2023/10/29 09:58:36;;;;;;;3.05;1.00;;;;;;;;;;5042789;28;20017;-78
2023/10/29 10:01:04;;;;;;;4.20;1.17;;;;;;;;;;5051166;28;20603;-79
2023/10/29 10:03:33;;;;;;;3.40;1.20;;;;;;;;;;5050654;28;20027;-82
2023/10/29 10:05:58;;;;;;;3.28;1.00;;;;;;;;;;5050208;28;20083;-77
2023/10/29 10:08:28;;;;;;;2.25;1.10;;;;;;;;;;5051092;28;20032;-78
2023/10/29 10:10:55;;;;;;;3.20;1.10;;;;;;;;;;5038533;28;20031;-77
2023/10/29 10:13:43;;;;;;;3.85;1.38;;;;;;;;;;5043380;28;20028;-77
2023/10/29 10:16:14;;;;;;;3.75;1.10;;;;;;;;;;5058494;28;20335;-76
2023/10/29 10:18:57;;;;;;;3.55;1.10;;;;;;;;;;5061971;28;20301;-78
2023/10/29 10:21:24;;;;;;;4.68;1.25;;;;;;;;;;5058427;28;20115;-78
2023/10/29 10:23:57;;;;;;;3.90;1.05;;;;;;;;;;5056210;28;20033;-78
2023/10/29 10:26:31;;;;;;;4.75;1.27;;;;;;;;;;5050706;28;20029;-78
2023/10/29 10:29:00;;;;;;;5.07;1.40;;;;;;;;;;5050801;28;20552;-78
2023/10/29 10:31:31;;;;;;;2.40;1.20;;;;;;;;;;5040168;28;20045;-79
2023/10/29 10:34:09;;;;;;;2.70;1.00;;;;;;;;;;5044588;28;20468;-81
2023/10/29 10:36:35;;;;;;;3.70;1.30;;;;;;;;;;5050563;28;20049;-82
2023/10/29 10:39:00;;;;;;;4.10;1.15;;;;;;;;;;5036624;28;20042;-83
2023/10/29 10:41:38;;;;;;;4.15;1.10;;;;;;;;;;5060442;28;20025;-79
2023/10/29 10:44:15;;;;;;;2.72;1.10;;;;;;;;;;5063177;28;20043;-81
2023/10/29 10:46:51;;;;;;;3.15;0.98;;;;;;;;;;5058984;28;20074;-84
2023/10/29 10:49:17;;;;;;;3.92;1.20;;;;;;;;;;5049472;28;20025;-87
2023/10/29 10:51:44;;;;;;;3.92;1.23;;;;;;;;;;5056007;28;20370;-80
2023/10/29 10:54:09;;;;;;;4.70;1.17;;;;;;;;;;5057788;28;20056;-80
2023/10/29 10:56:36;;;;;;;2.90;1.02;;;;;;;;;;5060068;28;20071;-81
2023/10/29 10:59:06;;;;;;;5.28;1.20;;;;;;;;;;5052276;28;20029;-80
2023/10/29 11:01:39;;;;;;;4.28;1.25;;;;;;;;;;5053237;28;20309;-80
2023/10/29 11:04:07;;;;;;;4.43;1.23;;;;;;;;;;5055069;28;20619;-78
2023/10/29 11:06:34;;;;;;;3.88;1.20;;;;;;;;;;5053516;28;20082;-80
2023/10/29 11:09:00;;;;;;;4.38;1.15;;;;;;;;;;5053258;28;20553;-79
2023/10/29 11:11:31;;;;;;;4.45;1.10;;;;;;;;;;5042962;28;20041;-79
2023/10/29 11:14:13;;;;;;;2.92;1.17;;;;;;;;;;5055383;28;20217;-79
2023/10/29 11:17:05;;;;;;;4.10;1.20;;;;;;;;;;5051502;28;20035;-77
2023/10/29 11:19:34;;;;;;;5.15;1.20;;;;;;;;;;5042897;28;20092;-78
2023/10/29 11:22:12;;;;;;;2.88;1.13;;;;;;;;;;5050949;28;20272;-80
2023/10/29 11:24:38;;;;;;;3.92;1.20;;;;;;;;;;5053672;28;20083;-83
2023/10/29 11:27:35;;;;;;;3.30;1.20;;;;;;;;;;5048338;28;20029;-83
2023/10/29 11:30:18;;;;;;;2.85;1.00;;;;;;;;;;5059802;28;20036;-80
2023/10/29 11:32:45;;;;;;;5.25;1.40;;;;;;;;;;5057980;28;20319;-81
2023/10/29 11:35:21;;;;;;;3.38;1.02;;;;;;;;;;5058472;28;20095;-81
2023/10/29 11:37:48;;;;;;;4.95;1.10;;;;;;;;;;5050258;28;20029;-82
2023/10/29 11:40:23;;;;;;;4.18;1.17;;;;;;;;;;5058289;28;20074;-79
2023/10/29 11:42:52;;;;;;;5.17;1.20;;;;;;;;;;5056514;28;20021;-81
2023/10/29 11:45:31;;;;;;;5.65;1.20;;;;;;;;;;5053545;28;20028;-80
2023/10/29 11:48:06;;;;;;;4.30;1.20;;;;;;;;;;5048294;28;20025;-81
2023/10/29 11:50:32;;;;;;;7.25;1.20;;;;;;;;;;5054619;28;20041;-85
2023/10/29 11:52:57;;;;;;;4.78;1.10;;;;;;;;;;5052277;28;20092;-77
2023/10/29 11:55:26;;;;;;;4.95;1.35;;;;;;;;;;5060387;28;20084;-80
2023/10/29 11:57:53;;;;;;;4.65;1.20;;;;;;;;;;5060115;28;20052;-78
2023/10/29 12:00:20;;;;;;;5.95;1.30;;;;;;;;;;5051887;28;20074;-80
2023/10/29 12:02:46;;;;;;;7.97;1.40;;;;;;;;;;5050255;28;20028;-77
2023/10/29 12:05:11;;;;;;;6.03;1.40;;;;;;;;;;5059447;28;20027;-78
2023/10/29 12:07:37;;;;;;;3.95;1.27;;;;;;;;;;5059699;28;20017;-79
2023/10/29 12:10:10;;;;;;;5.25;1.20;;;;;;;;;;5057123;28;20029;-79
2023/10/29 12:12:36;;;;;;;4.40;1.27;;;;;;;;;;5058506;28;20488;-76
2023/10/29 12:15:02;;;;;;;7.55;1.33;;;;;;;;;;5049694;28;20041;-76
2023/10/29 12:17:28;;;;;;;6.03;1.40;;;;;;;;;;5055111;28;20033;-77
2023/10/29 12:19:54;;;;;;;4.72;1.30;;;;;;;;;;5054329;28;20095;-79
2023/10/29 12:22:25;;;;;;;7.28;1.30;;;;;;;;;;5056520;28;20335;-79
2023/10/29 12:24:59;;;;;;;5.70;1.80;;;;;;;;;;5036464;28;20032;-77
2023/10/29 12:27:25;;;;;;;4.13;1.30;;;;;;;;;;5036206;28;20089;-75
2023/10/29 12:29:51;;;;;;;6.13;1.70;;;;;;;;;;5034263;28;20021;-77
2023/10/29 12:32:26;;;;;;;4.07;1.20;;;;;;;;;;5050637;28;20232;-76
2023/10/29 12:34:53;;;;;;;4.20;1.20;;;;;;;;;;5035411;28;20332;-77
2023/10/29 12:37:28;;;;;;;3.67;1.20;;;;;;;;;;5051068;28;20052;-78
2023/10/29 12:39:56;;;;;;;3.30;1.30;;;;;;;;;;5055997;28;20021;-76
2023/10/29 12:42:51;;;;;;;4.78;1.40;;;;;;;;;;5032243;28;20232;-77
2023/10/29 12:45:32;;;;;;;4.85;1.25;;;;;;;;;;4956770;28;20098;-79
2023/10/29 12:48:14;;;;;;;7.15;1.40;;;;;;;;;;5040286;28;20033;-78
2023/10/29 12:50:50;;;;;;;9.27;1.60;;;;;;;;;;5045033;28;20040;-79
2023/10/29 12:53:33;;;;;;;5.65;1.20;;;;;;;;;;5042145;28;20033;-78
2023/10/29 12:56:02;;;;;;;5.65;1.40;;;;;;;;;;5040781;28;20095;-80
2023/10/29 12:58:30;;;;;;;4.90;1.40;;;;;;;;;;5039763;28;20032;-79
2023/10/29 13:00:59;;;;;;;8.35;1.50;;;;;;;;;;5037179;28;20029;-79
2023/10/29 13:03:26;;;;;;;8.13;1.63;;;;;;;;;;5038424;28;20037;-80
2023/10/29 13:05:54;;;;;;;7.63;1.70;;;;;;;;;;5057899;28;20021;-83
2023/10/29 13:08:42;;;;;;;7.72;1.60;;;;;;;;;;5038939;28;20037;-82
2023/10/29 13:11:32;;;;;;;7.13;1.40;;;;;;;;;;5038217;28;20049;-80
2023/10/29 13:13:58;;;;;;;7.05;1.60;;;;;;;;;;5029280;28;20036;-84
2023/10/29 13:16:23;;;;;;;7.38;1.60;;;;;;;;;;5025950;28;20021;-81
2023/10/29 13:18:54;;;;;;;7.10;1.50;;;;;;;;;;5047391;28;20063;-82
2023/10/29 13:21:19;;;;;;;6.50;1.58;;;;;;;;;;5037958;28;20044;-81
2023/10/29 13:23:45;;;;;;;7.38;1.95;;;;;;;;;;5045486;28;20336;-79
2023/10/29 13:26:11;;;;;;;6.35;1.73;;;;;;;;;;5058271;28;20032;-78
2023/10/29 13:28:37;;;;;;;6.22;1.77;;;;;;;;;;5058855;28;20032;-77
2023/10/29 13:31:02;;;;;;;7.55;1.70;;;;;;;;;;5040379;28;20032;-77
2023/10/29 13:33:28;;;;;;;11.95;1.70;;;;;;;;;;5063486;28;20029;-79
2023/10/29 13:35:54;;;;;;;10.10;1.75;;;;;;;;;;5049976;28;20028;-77
2023/10/29 13:38:24;;;;;;;11.55;2.00;;;;;;;;;;5049356;28;20025;-78
2023/10/29 13:40:49;;;;;;;8.35;1.75;;;;;;;;;;5051985;28;20408;-77
2023/10/29 13:43:15;;;;;;;9.20;1.60;;;;;;;;;;5051059;28;20039;-78
2023/10/29 13:45:43;;;;;;;10.27;1.95;;;;;;;;;;5065572;28;20037;-80
2023/10/29 13:48:09;;;;;;;9.52;1.70;;;;;;;;;;5065320;28;20355;-79
2023/10/29 13:50:38;;;;;;;7.53;1.77;;;;;;;;;;5047796;28;20052;-80
2023/10/29 13:53:11;;;;;;;11.38;2.35;;;;;;;;;;5047552;28;20037;-79
2023/10/29 13:55:40;;;;;;;10.48;3.72;;;;;;;;;;5044413;28;20033;-82
2023/10/29 13:58:09;;;;;;;11.43;2.30;;;;;;;;;;5045663;28;20032;-81
2023/10/29 14:00:34;;;;;;;13.55;2.35;;;;;;;;;;5048162;28;20336;-80
2023/10/29 14:03:19;;;;;;;9.75;1.65;;;;;;;;;;5052841;28;20028;-80
2023/10/29 14:06:06;;;;;;;;;;;;;;;;;;;;;
2023/10/29 14:08:34;;;;;;;8.15;1.85;;;;;;;;;;5067813;28;20068;-80
2023/10/29 14:10:59;;;;;;;8.50;1.92;;;;;;;;;;5067008;28;20028;-79
2023/10/29 14:13:25;;;;;;;8.77;1.60;;;;;;;;;;5052413;28;20414;-79
2023/10/29 14:15:58;;;;;;;8.75;2.47;;;;;;;;;;5047397;28;20032;-80
2023/10/29 14:18:28;;;;;;;8.35;2.05;;;;;;;;;;5054799;28;20036;-79
2023/10/29 14:20:56;;;;;;;11.65;2.22;;;;;;;;;;5050762;28;20377;-79
2023/10/29 14:23:26;;;;;;;13.93;2.20;;;;;;;;;;5062342;28;20072;-80
2023/10/29 14:25:52;;;;;;;10.98;2.20;;;;;;;;;;5063026;28;20024;-80
2023/10/29 14:28:17;;;;;;;13.50;2.15;;;;;;;;;;5050647;28;20024;-78
2023/10/29 14:30:43;;;;;;;13.15;2.03;;;;;;;;;;5045376;28;20061;-80
2023/10/29 14:33:08;;;;;;;10.88;2.45;;;;;;;;;;5044791;28;20120;-79
2023/10/29 14:35:35;;;;;;;11.05;2.35;;;;;;;;;;5062941;28;20029;-77
2023/10/29 14:38:01;;;;;;;8.95;2.20;;;;;;;;;;5043698;28;20402;-77
2023/10/29 14:40:26;;;;;;;11.80;2.53;;;;;;;;;;5057265;28;20029;-79